createdAt,value
2019-05-29T00:01:12.147Z,98706.58
2019-05-29T00:02:43.330Z,98701.80
2019-05-29T00:04:18.554Z,98703.94
2019-05-29T00:05:52.820Z,98703.98
2019-05-29T00:07:27.602Z,98705.66
2019-05-29T00:09:01.864Z,98708.36
2019-05-29T00:10:37.101Z,98711.00
2019-05-29T00:12:17.163Z,98711.30
2019-05-29T00:13:50.524Z,98717.83
2019-05-29T00:15:24.789Z,98722.73
2019-05-29T00:16:59.807Z,98665.05
2019-05-29T00:18:34.009Z,98725.31
2019-05-29T00:20:09.007Z,98726.30
2019-05-29T00:21:43.260Z,98732.09
2019-05-29T00:23:18.828Z,98730.88
2019-05-29T00:24:53.068Z,98735.36
2019-05-29T00:26:27.925Z,98737.06
2019-05-29T00:28:02.135Z,98742.69
2019-05-29T00:29:37.355Z,98740.78
2019-05-29T00:31:14.499Z,98740.65
2019-05-29T00:32:49.417Z,98745.71
2019-05-29T00:34:23.664Z,98750.61
2019-05-29T00:35:59.009Z,98750.18
2019-05-29T00:37:33.203Z,98753.25
2019-05-29T00:39:10.711Z,98750.18
2019-05-29T00:40:44.919Z,98746.91
2019-05-29T00:42:19.837Z,98756.78
2019-05-29T00:43:54.037Z,98750.09
2019-05-29T00:45:29.104Z,98752.17
2019-05-29T00:47:03.430Z,98752.67
2019-05-29T00:48:38.376Z,98754.77
2019-05-29T00:50:14.015Z,98753.38
2019-05-29T00:51:49.961Z,98756.90
2019-05-29T00:53:24.218Z,98756.50
2019-05-29T00:54:59.334Z,98758.48
2019-05-29T00:56:33.548Z,98752.76
2019-05-29T00:58:08.819Z,98759.86
2019-05-29T00:59:43.306Z,98762.55
2019-05-29T01:01:20.059Z,98757.91
2019-05-29T01:02:54.473Z,98763.28
2019-05-29T01:04:29.334Z,98758.95
2019-05-29T01:06:03.541Z,98760.09
2019-05-29T01:07:38.179Z,98766.79
2019-05-29T01:09:12.407Z,98772.23
2019-05-29T01:10:47.196Z,98769.28
2019-05-29T01:12:21.452Z,98768.22
2019-05-29T01:13:56.809Z,98768.03
2019-05-29T01:15:31.080Z,98769.62
2019-05-29T01:17:07.341Z,98771.86
2019-05-29T01:18:41.526Z,98768.65
2019-05-29T01:20:18.061Z,98778.39
2019-05-29T01:21:53.540Z,98773.58
2019-05-29T01:23:28.455Z,98778.72
2019-05-29T01:25:02.660Z,98779.41
2019-05-29T01:26:37.955Z,98782.27
2019-05-29T01:28:12.690Z,98784.41
2019-05-29T01:29:47.771Z,98785.25
2019-05-29T01:31:21.972Z,98788.16
2019-05-29T01:32:57.361Z,98786.25
2019-05-29T01:34:31.573Z,98791.00
2019-05-29T01:36:06.447Z,98797.27
2019-05-29T01:37:42.132Z,98795.56
2019-05-29T01:39:17.279Z,98798.66
2019-05-29T01:40:51.712Z,98792.77
2019-05-29T01:42:27.986Z,98801.39
2019-05-29T01:44:02.202Z,98804.73
2019-05-29T01:45:38.896Z,98801.71
2019-05-29T01:47:13.507Z,98804.21
2019-05-29T01:48:48.307Z,98801.59
2019-05-29T01:50:25.408Z,98804.33
2019-05-29T01:52:02.182Z,98812.23
2019-05-29T01:53:36.400Z,98813.58
2019-05-29T01:55:11.402Z,98812.27
2019-05-29T01:56:45.608Z,98811.47
2019-05-29T01:58:21.901Z,98813.38
2019-05-29T01:59:56.368Z,98816.94
2019-05-29T02:01:31.221Z,98817.44
2019-05-29T02:03:05.839Z,98812.67
2019-05-29T02:04:40.969Z,98816.80
2019-05-29T02:06:18.295Z,98828.88
2019-05-29T02:07:53.148Z,98826.52
2019-05-29T02:09:28.315Z,98833.00
2019-05-29T02:11:03.848Z,98830.35
2019-05-29T02:12:39.593Z,98834.34
2019-05-29T02:14:14.410Z,98830.13
2019-05-29T02:15:48.633Z,98835.58
2019-05-29T02:17:23.882Z,98832.77
2019-05-29T02:18:58.520Z,98834.15
2019-05-29T02:20:33.316Z,98832.25
2019-05-29T02:22:07.536Z,98831.06
2019-05-29T02:23:42.846Z,98834.38
2019-05-29T02:25:20.684Z,98833.95
2019-05-29T02:26:55.777Z,98835.67
2019-05-29T02:28:30.104Z,98835.12
2019-05-29T02:30:08.469Z,98834.34
2019-05-29T02:31:42.894Z,98837.18
2019-05-29T02:33:19.476Z,98835.77
2019-05-29T02:34:53.901Z,98832.45
2019-05-29T02:36:29.147Z,98840.26
2019-05-29T02:38:03.417Z,98843.39
2019-05-29T02:39:38.025Z,98833.77
2019-05-29T02:41:12.359Z,98837.53
2019-05-29T02:42:47.842Z,98835.86
2019-05-29T02:44:23.486Z,98831.59
2019-05-29T02:45:58.460Z,98840.01
2019-05-29T02:47:34.254Z,98842.63
2019-05-29T02:49:09.467Z,98840.68
2019-05-29T02:50:44.158Z,98848.31
2019-05-29T02:52:21.859Z,98846.45
2019-05-29T02:53:56.503Z,98851.23
2019-05-29T02:55:31.729Z,98849.45
2019-05-29T02:57:07.307Z,98848.08
2019-05-29T02:58:42.162Z,98848.59
2019-05-29T03:00:16.885Z,98849.21
2019-05-29T03:01:52.149Z,98853.38
2019-05-29T03:03:31.576Z,98852.95
2019-05-29T03:05:06.165Z,98856.53
2019-05-29T03:06:40.926Z,98858.39
2019-05-29T03:08:18.030Z,98859.72
2019-05-29T03:09:52.550Z,98858.15
2019-05-29T03:11:29.355Z,98865.08
2019-05-29T03:13:05.707Z,98862.07
2019-05-29T03:14:40.941Z,98862.56
2019-05-29T03:16:15.292Z,98865.21
2019-05-29T03:17:50.098Z,98866.53
2019-05-29T03:19:25.808Z,98864.13
2019-05-29T03:21:01.143Z,98873.19
2019-05-29T03:22:35.466Z,98877.59
2019-05-29T03:24:10.239Z,98872.48
2019-05-29T03:25:44.470Z,98874.93
2019-05-29T03:27:19.722Z,98877.35
2019-05-29T03:28:54.009Z,98882.82
2019-05-29T03:30:31.603Z,98884.77
2019-05-29T03:32:04.702Z,98882.91
2019-05-29T03:33:48.355Z,98835.03
2019-05-29T03:35:15.569Z,98882.43
2019-05-29T03:36:50.361Z,98890.34
2019-05-29T03:38:25.949Z,98891.58
2019-05-29T03:40:01.692Z,98887.53
2019-05-29T03:41:36.187Z,98893.76
2019-05-29T03:43:11.053Z,98891.95
2019-05-29T03:44:45.286Z,98889.16
2019-05-29T03:46:31.391Z,98893.55
2019-05-29T03:47:56.096Z,98891.42
2019-05-29T03:49:31.213Z,98884.48
2019-05-29T03:51:07.518Z,98886.13
2019-05-29T03:52:42.927Z,98886.70
2019-05-29T03:54:18.386Z,98891.31
2019-05-29T03:55:53.190Z,98892.59
2019-05-29T03:57:31.766Z,98889.84
2019-05-29T03:59:09.595Z,98892.78
2019-05-29T04:00:46.331Z,98897.38
2019-05-29T04:02:20.290Z,98891.03
2019-05-29T04:03:54.506Z,98896.05
2019-05-29T04:05:30.947Z,98897.23
2019-05-29T04:07:05.247Z,98896.95
2019-05-29T04:08:40.113Z,98903.91
2019-05-29T04:10:14.450Z,98902.71
2019-05-29T04:11:49.713Z,98903.45
2019-05-29T04:13:23.954Z,98902.69
2019-05-29T04:14:58.841Z,98900.66
2019-05-29T04:16:52.413Z,98899.34
2019-05-29T04:18:11.361Z,98901.02
2019-05-29T04:19:46.391Z,98901.02
2019-05-29T04:21:22.844Z,98899.64
2019-05-29T04:22:59.579Z,98900.11
2019-05-29T04:24:38.190Z,98901.44
2019-05-29T04:26:15.320Z,98902.17
2019-05-29T04:27:52.079Z,98906.03
2019-05-29T04:29:29.967Z,98905.34
2019-05-29T04:31:06.429Z,98902.95
2019-05-29T04:32:41.445Z,98902.78
2019-05-29T04:34:16.263Z,98903.81
2019-05-29T04:35:50.500Z,98909.11
2019-05-29T04:37:25.510Z,98909.45
2019-05-29T04:39:00.442Z,98909.96
2019-05-29T04:40:39.342Z,98913.08
2019-05-29T04:42:13.177Z,98912.69
2019-05-29T04:43:48.088Z,98912.97
2019-05-29T04:45:22.300Z,98909.69
2019-05-29T04:47:10.078Z,98903.28
2019-05-29T04:48:36.146Z,98904.30
2019-05-29T04:50:16.443Z,98901.91
2019-05-29T04:51:49.603Z,98897.03
2019-05-29T04:53:24.413Z,98893.39
2019-05-29T04:54:58.653Z,98897.40
2019-05-29T04:56:34.668Z,98905.79
2019-05-29T04:58:09.308Z,98902.23
2019-05-29T04:59:44.165Z,98904.47
2019-05-29T05:01:18.478Z,98899.98
2019-05-29T05:02:53.131Z,98898.14
2019-05-29T05:04:27.328Z,98902.67
2019-05-29T05:06:02.184Z,98902.77
2019-05-29T05:07:37.465Z,98914.50
2019-05-29T05:09:12.732Z,98903.65
2019-05-29T05:10:46.916Z,98908.79
2019-05-29T05:12:22.709Z,98909.39
2019-05-29T05:13:56.920Z,98912.20
2019-05-29T05:15:35.837Z,98908.14
2019-05-29T05:17:23.280Z,98906.22
2019-05-29T05:18:46.682Z,98905.64
2019-05-29T05:20:20.898Z,98908.17
2019-05-29T05:21:59.196Z,98908.91
2019-05-29T05:23:34.038Z,98908.09
2019-05-29T05:25:09.332Z,98913.02
2019-05-29T05:26:44.605Z,98909.13
2019-05-29T05:28:19.709Z,98908.70
2019-05-29T05:29:54.522Z,98909.66
2019-05-29T05:31:30.308Z,98906.70
2019-05-29T05:33:04.909Z,98910.63
2019-05-29T05:34:41.000Z,98912.46
2019-05-29T05:36:15.255Z,98907.46
2019-05-29T05:37:50.096Z,98907.89
2019-05-29T05:39:24.387Z,98903.31
2019-05-29T05:40:59.491Z,98904.37
2019-05-29T05:42:34.792Z,98899.16
2019-05-29T05:44:11.261Z,98899.54
2019-05-29T05:45:45.584Z,98899.19
2019-05-29T05:47:20.664Z,98896.27
2019-05-29T05:48:54.862Z,98900.71
2019-05-29T05:50:31.141Z,98883.86
2019-05-29T05:52:06.166Z,98904.13
2019-05-29T05:53:42.311Z,98899.36
2019-05-29T05:55:16.652Z,98903.92
2019-05-29T05:56:53.521Z,98903.31
2019-05-29T05:58:27.387Z,98903.52
2019-05-29T06:00:02.351Z,98902.05
2019-05-29T06:01:37.828Z,98901.20
2019-05-29T06:03:13.058Z,98899.44
2019-05-29T06:04:47.362Z,98906.13
2019-05-29T06:06:23.863Z,98910.60
2019-05-29T06:07:58.138Z,98907.77
2019-05-29T06:09:34.128Z,98903.19
2019-05-29T06:11:09.504Z,98903.86
2019-05-29T06:12:45.929Z,98899.94
2019-05-29T06:14:20.177Z,98902.87
2019-05-29T06:15:54.969Z,98910.64
2019-05-29T06:17:29.263Z,98910.48
2019-05-29T06:19:04.500Z,98905.19
2019-05-29T06:20:39.057Z,98908.36
2019-05-29T06:22:15.584Z,98907.05
2019-05-29T06:23:50.359Z,98911.78
2019-05-29T06:25:27.003Z,98909.57
2019-05-29T06:27:01.487Z,98909.23
2019-05-29T06:28:37.088Z,98911.10
2019-05-29T06:30:12.289Z,98908.89
2019-05-29T06:31:47.386Z,98911.69
2019-05-29T06:33:21.597Z,98912.56
2019-05-29T06:34:56.134Z,98906.31
2019-05-29T06:36:31.821Z,98910.34
2019-05-29T06:38:06.876Z,98898.88
2019-05-29T06:39:41.798Z,98900.45
2019-05-29T06:41:16.558Z,98903.03
2019-05-29T06:42:51.364Z,98905.52
2019-05-29T06:44:26.475Z,98902.92
2019-05-29T06:46:00.792Z,98900.38
2019-05-29T06:47:36.624Z,98898.89
2019-05-29T06:49:11.183Z,98896.20
2019-05-29T06:50:47.506Z,98899.23
2019-05-29T06:52:21.800Z,98897.22
2019-05-29T06:53:57.531Z,98902.78
2019-05-29T06:55:31.745Z,98898.67
2019-05-29T06:57:06.903Z,98902.09
2019-05-29T06:58:42.269Z,98902.67
2019-05-29T07:00:32.006Z,98904.66
2019-05-29T07:01:53.230Z,98903.54
2019-05-29T07:03:28.511Z,98901.48
2019-05-29T07:05:02.756Z,98902.72
2019-05-29T07:06:38.581Z,98898.72
2019-05-29T07:08:19.254Z,98893.22
2019-05-29T07:09:50.559Z,98897.45
2019-05-29T07:11:26.411Z,98891.31
2019-05-29T07:13:03.869Z,98895.97
2019-05-29T07:14:40.328Z,98890.00
2019-05-29T07:16:15.637Z,98890.23
2019-05-29T07:17:49.956Z,98898.00
2019-05-29T07:19:45.064Z,98896.50
2019-05-29T07:21:01.844Z,98891.90
2019-05-29T07:22:37.181Z,98898.76
2019-05-29T07:24:11.426Z,98901.25
2019-05-29T07:25:47.451Z,98902.00
2019-05-29T07:27:23.366Z,98894.25
2019-05-29T07:29:07.981Z,98900.27
2019-05-29T07:30:35.137Z,98899.69
2019-05-29T07:32:09.665Z,98901.66
2019-05-29T07:33:45.176Z,98897.44
2019-05-29T07:35:20.467Z,98900.05
2019-05-29T07:36:54.861Z,98900.49
2019-05-29T07:38:29.661Z,98891.50
2019-05-29T07:40:08.577Z,98898.89
2019-05-29T07:41:45.966Z,98895.61
2019-05-29T07:43:20.283Z,98894.81
2019-05-29T07:44:55.089Z,98897.81
2019-05-29T07:46:29.958Z,98896.30
2019-05-29T07:48:05.198Z,98901.71
2019-05-29T07:49:43.024Z,98900.38
2019-05-29T07:51:15.978Z,98905.75
2019-05-29T07:52:50.273Z,98903.41
2019-05-29T07:54:26.735Z,98906.16
2019-05-29T07:56:00.963Z,98913.47
2019-05-29T07:57:35.763Z,98902.27
2019-05-29T07:59:10.036Z,98900.87
2019-05-29T08:01:06.871Z,98902.23
2019-05-29T08:02:21.274Z,98901.51
2019-05-29T08:03:56.074Z,98898.71
2019-05-29T08:05:30.334Z,98906.98
2019-05-29T08:07:05.433Z,98903.25
2019-05-29T08:08:39.640Z,98905.34
2019-05-29T08:10:15.335Z,98905.42
2019-05-29T08:11:50.124Z,98901.60
2019-05-29T08:13:25.329Z,98901.58
2019-05-29T08:14:59.619Z,98899.22
2019-05-29T08:16:34.529Z,98899.33
2019-05-29T08:18:08.946Z,98898.99
2019-05-29T08:19:59.247Z,98898.12
2019-05-29T08:21:19.904Z,98898.41
2019-05-29T08:22:54.721Z,98896.72
2019-05-29T08:24:29.010Z,98901.87
2019-05-29T08:26:04.121Z,98898.28
2019-05-29T08:27:40.579Z,98899.67
2019-05-29T08:29:15.529Z,98901.63
2019-05-29T08:30:54.126Z,98903.78
2019-05-29T08:32:26.316Z,98900.50
2019-05-29T08:34:00.737Z,98899.72
2019-05-29T08:35:37.105Z,98902.30
2019-05-29T08:37:11.309Z,98906.91
2019-05-29T08:38:47.376Z,98907.56
2019-05-29T08:40:21.604Z,98906.88
2019-05-29T08:42:21.494Z,98912.99
2019-05-29T08:43:32.352Z,98904.19
2019-05-29T08:45:13.159Z,98905.95
2019-05-29T08:47:06.430Z,98895.30
2019-05-29T08:48:23.868Z,98898.44
2019-05-29T08:50:16.665Z,98902.06
2019-05-29T08:51:35.019Z,98898.61
2019-05-29T08:53:10.705Z,98897.83
2019-05-29T08:54:46.019Z,98891.44
2019-05-29T08:56:20.468Z,98891.66
2019-05-29T08:57:55.641Z,98896.75
2019-05-29T08:59:29.878Z,98894.36
2019-05-29T09:01:04.669Z,98894.80
2019-05-29T09:02:40.273Z,98891.84
2019-05-29T09:04:15.178Z,98887.22
2019-05-29T09:06:06.099Z,98894.28
2019-05-29T09:07:25.888Z,98894.19
2019-05-29T09:09:00.140Z,98894.67
2019-05-29T09:10:35.243Z,98893.91
2019-05-29T09:12:10.884Z,98892.50
2019-05-29T09:13:45.978Z,98894.51
2019-05-29T09:15:21.744Z,98895.52
2019-05-29T09:16:57.201Z,98893.08
2019-05-29T09:18:31.446Z,98893.03
2019-05-29T09:20:25.306Z,98888.84
2019-05-29T09:21:45.866Z,98891.03
2019-05-29T09:23:23.184Z,98886.32
2019-05-29T09:24:57.752Z,98885.23
2019-05-29T09:26:32.644Z,98888.41
2019-05-29T09:28:14.821Z,98887.38
2019-05-29T09:29:50.830Z,98882.88
2019-05-29T09:31:25.110Z,98885.37
2019-05-29T09:32:59.952Z,98883.16
2019-05-29T09:34:34.956Z,98880.41
2019-05-29T09:36:10.331Z,98885.62
2019-05-29T09:37:44.588Z,98881.76
2019-05-29T09:39:21.051Z,98876.84
2019-05-29T09:40:55.515Z,98867.86
2019-05-29T09:42:32.140Z,98874.30
2019-05-29T09:44:06.333Z,98877.17
2019-05-29T09:45:42.590Z,98875.55
2019-05-29T09:47:19.039Z,98875.80
2019-05-29T09:48:55.049Z,98876.98
2019-05-29T09:50:48.940Z,98875.61
2019-05-29T09:52:07.353Z,98877.88
2019-05-29T09:53:44.477Z,98876.62
2019-05-29T09:55:19.890Z,98877.23
2019-05-29T09:56:54.992Z,98870.67
2019-05-29T09:58:30.661Z,98872.28
2019-05-29T10:00:08.025Z,98873.55
2019-05-29T10:01:42.938Z,98864.64
2019-05-29T10:03:17.136Z,98863.41
2019-05-29T10:04:53.095Z,98866.25
2019-05-29T10:06:27.869Z,98862.88
2019-05-29T10:08:04.425Z,98863.04
2019-05-29T10:09:38.659Z,98864.57
2019-05-29T10:11:13.189Z,98856.48
2019-05-29T10:12:47.404Z,98854.86
2019-05-29T10:14:22.390Z,98858.86
2019-05-29T10:15:57.691Z,98859.48
2019-05-29T10:17:33.076Z,98854.83
2019-05-29T10:19:07.305Z,98862.00
2019-05-29T10:20:44.328Z,98860.94
2019-05-29T10:22:18.523Z,98862.73
2019-05-29T10:23:53.304Z,98862.43
2019-05-29T10:25:28.785Z,98859.33
2019-05-29T10:27:05.267Z,98805.92
2019-05-29T10:28:57.837Z,98859.65
2019-05-29T10:30:19.128Z,98856.56
2019-05-29T10:31:53.580Z,98854.83
2019-05-29T10:33:28.848Z,98853.57
2019-05-29T10:35:03.069Z,98846.55
2019-05-29T10:36:38.862Z,98845.10
2019-05-29T10:38:13.596Z,98845.48
2019-05-29T10:39:48.968Z,98859.10
2019-05-29T10:41:23.324Z,98856.05
2019-05-29T10:42:58.125Z,98855.28
2019-05-29T10:44:32.391Z,98854.19
2019-05-29T10:46:07.731Z,98849.52
2019-05-29T10:47:43.228Z,98854.32
2019-05-29T10:49:18.329Z,98852.27
2019-05-29T10:50:54.171Z,98856.94
2019-05-29T10:52:29.787Z,98852.59
2019-05-29T10:54:04.020Z,98854.09
2019-05-29T10:55:39.857Z,98854.80
2019-05-29T10:57:14.185Z,98854.47
2019-05-29T10:58:55.722Z,98845.39
2019-05-29T11:00:25.335Z,98845.05
2019-05-29T11:02:01.331Z,98849.83
2019-05-29T11:03:35.545Z,98840.73
2019-05-29T11:05:12.358Z,98844.70
2019-05-29T11:06:47.837Z,98842.39
2019-05-29T11:08:23.129Z,98839.09
2019-05-29T11:09:57.340Z,98837.03
2019-05-29T11:11:32.365Z,98834.89
2019-05-29T11:13:06.621Z,98832.47
2019-05-29T11:14:41.421Z,98830.14
2019-05-29T11:16:15.626Z,98823.62
2019-05-29T11:17:51.497Z,98823.66
2019-05-29T11:19:28.437Z,98826.72
2019-05-29T11:21:03.235Z,98828.00
2019-05-29T11:22:37.498Z,98833.70
2019-05-29T11:24:12.489Z,98833.65
2019-05-29T11:25:47.770Z,98828.38
2019-05-29T11:27:25.943Z,98823.16
2019-05-29T11:28:59.421Z,98818.85
2019-05-29T11:30:34.383Z,98824.09
2019-05-29T11:32:10.341Z,98821.16
2019-05-29T11:33:45.138Z,98820.09
2019-05-29T11:35:19.405Z,98815.58
2019-05-29T11:36:54.390Z,98816.54
2019-05-29T11:38:28.600Z,98809.99
2019-05-29T11:40:03.636Z,98808.11
2019-05-29T11:41:37.897Z,98810.17
2019-05-29T11:43:17.805Z,98812.08
2019-05-29T11:44:53.389Z,98816.09
2019-05-29T11:46:29.674Z,98814.59
2019-05-29T11:48:05.280Z,98812.05
2019-05-29T11:49:41.949Z,98806.88
2019-05-29T11:51:16.195Z,98809.47
2019-05-29T11:52:52.005Z,98804.98
2019-05-29T11:54:26.528Z,98803.91
2019-05-29T11:56:04.395Z,98806.27
2019-05-29T11:57:39.694Z,98800.22
2019-05-29T11:59:14.627Z,98805.64
2019-05-29T12:00:48.904Z,98799.68
2019-05-29T12:02:23.923Z,98801.91
2019-05-29T12:04:18.480Z,98802.38
2019-05-29T12:05:34.689Z,98803.70
2019-05-29T12:07:08.914Z,98800.11
2019-05-29T12:08:43.909Z,98799.33
2019-05-29T12:10:19.022Z,98798.31
2019-05-29T12:11:55.650Z,98799.75
2019-05-29T12:13:30.031Z,98797.58
2019-05-29T12:15:14.415Z,98803.36
2019-05-29T12:16:44.831Z,98795.59
2019-05-29T12:18:23.911Z,98797.33
2019-05-29T12:19:59.429Z,98792.03
2019-05-29T12:21:33.518Z,98794.78
2019-05-29T12:23:24.166Z,98789.36
2019-05-29T12:24:44.261Z,98794.41
2019-05-29T12:26:22.666Z,98787.43
2019-05-29T12:27:57.362Z,98786.88
2019-05-29T12:29:31.654Z,98787.34
2019-05-29T12:31:06.440Z,98781.69
2019-05-29T12:32:41.893Z,98776.55
2019-05-29T12:34:19.339Z,98773.66
2019-05-29T12:35:52.898Z,98777.48
2019-05-29T12:37:27.876Z,98775.46
2019-05-29T12:39:02.717Z,98768.71
2019-05-29T12:40:40.138Z,98772.42
2019-05-29T12:42:16.457Z,98772.44
2019-05-29T12:43:53.282Z,98761.11
2019-05-29T12:45:27.572Z,98765.52
2019-05-29T12:47:04.489Z,98766.82
2019-05-29T12:48:38.758Z,98771.31
2019-05-29T12:50:16.130Z,98773.92
2019-05-29T12:51:50.418Z,98776.30
2019-05-29T12:53:30.430Z,98776.46
2019-05-29T12:55:02.442Z,98777.48
2019-05-29T12:56:37.430Z,98780.25
2019-05-29T12:58:11.620Z,98777.34
2019-05-29T12:59:46.724Z,98776.93
2019-05-29T13:01:20.931Z,98784.52
2019-05-29T13:02:56.259Z,98777.21
2019-05-29T13:04:30.941Z,98781.38
2019-05-29T13:06:05.835Z,98779.04
2019-05-29T13:07:40.189Z,98777.28
2019-05-29T13:09:14.988Z,98775.41
2019-05-29T13:10:49.217Z,98775.16
2019-05-29T13:12:24.286Z,98771.64
2019-05-29T13:13:58.537Z,98772.79
2019-05-29T13:15:33.410Z,98765.66
2019-05-29T13:17:07.709Z,98765.70
2019-05-29T13:18:42.853Z,98769.58
2019-05-29T13:20:21.693Z,98774.66
2019-05-29T13:21:55.581Z,98771.33
2019-05-29T13:23:44.301Z,98770.80
2019-05-29T13:25:12.213Z,98764.55
2019-05-29T13:26:46.942Z,98763.88
2019-05-29T13:28:24.077Z,98765.81
2019-05-29T13:30:01.748Z,98770.53
2019-05-29T13:31:35.165Z,98772.51
2019-05-29T13:33:09.981Z,98771.31
2019-05-29T13:34:44.179Z,98773.31
2019-05-29T13:36:18.972Z,98776.69
2019-05-29T13:37:53.343Z,98773.07
2019-05-29T13:39:29.979Z,98773.17
2019-05-29T13:41:04.575Z,98770.59
2019-05-29T13:42:40.256Z,98767.45
2019-05-29T13:44:16.150Z,98768.76
2019-05-29T13:45:50.948Z,98761.17
2019-05-29T13:47:25.208Z,98760.66
2019-05-29T13:49:01.068Z,98761.17
2019-05-29T13:50:37.338Z,98765.23
2019-05-29T13:52:12.596Z,98764.20
2019-05-29T13:54:02.017Z,98769.11
2019-05-29T13:55:24.050Z,98767.67
2019-05-29T13:56:59.584Z,98768.44
2019-05-29T13:58:34.961Z,98766.38
2019-05-29T14:01:49.392Z,98770.11
2019-05-29T14:03:24.205Z,98772.66
2019-05-29T14:05:00.437Z,98774.00
2019-05-29T14:06:34.872Z,98772.42
2019-05-29T14:08:09.404Z,98767.78
2019-05-29T14:09:44.325Z,98766.89
2019-05-29T14:11:19.152Z,98767.94
2019-05-29T14:12:53.362Z,98761.80
2019-05-29T14:14:28.157Z,98762.27
2019-05-29T14:16:02.692Z,98761.83
2019-05-29T14:17:37.855Z,98760.30
2019-05-29T14:19:15.105Z,98760.88
2019-05-29T14:20:49.951Z,98764.34
2019-05-29T14:22:24.441Z,98772.45
2019-05-29T14:24:00.302Z,98775.72
2019-05-29T14:25:35.090Z,98776.00
2019-05-29T14:27:12.539Z,98778.85
2019-05-29T14:28:46.709Z,98777.59
2019-05-29T14:30:21.901Z,98776.38
2019-05-29T14:31:56.264Z,98781.98
2019-05-29T14:33:31.074Z,98789.22
2019-05-29T14:35:08.990Z,98793.33
2019-05-29T14:36:43.803Z,98797.67
2019-05-29T14:38:18.482Z,98808.43
2019-05-29T14:39:54.525Z,98812.75
2019-05-29T14:41:28.904Z,98809.12
2019-05-29T14:43:06.479Z,98807.00
2019-05-29T14:44:39.566Z,98807.16
2019-05-29T14:46:14.601Z,98786.55
2019-05-29T14:47:49.805Z,98791.34
2019-05-29T14:49:27.010Z,98790.19
2019-05-29T14:51:03.586Z,98787.13
2019-05-29T14:52:38.894Z,98788.81
2019-05-29T14:54:13.395Z,98784.62
2019-05-29T14:55:48.187Z,98792.72
2019-05-29T14:57:25.991Z,98787.65
2019-05-29T14:58:58.830Z,98785.59
2019-05-29T15:00:33.297Z,98785.20
2019-05-29T15:02:18.887Z,98782.42
2019-05-29T15:03:44.449Z,98783.09
2019-05-29T15:05:19.843Z,98781.92
2019-05-29T15:06:54.327Z,98785.25
2019-05-29T15:08:29.139Z,98782.69
2019-05-29T15:10:13.115Z,98782.17
2019-05-29T15:11:40.808Z,98782.59
2019-05-29T15:13:16.147Z,98772.56
2019-05-29T15:14:50.947Z,98785.98
2019-05-29T15:16:28.107Z,98789.41
2019-05-29T15:18:03.018Z,98783.08
2019-05-29T15:19:38.611Z,98785.69
2019-05-29T15:21:13.466Z,98787.20
2019-05-29T15:22:49.549Z,98783.77
2019-05-29T15:24:24.013Z,98786.85
2019-05-29T15:26:00.222Z,98785.06
2019-05-29T15:27:34.953Z,98788.36
2019-05-29T15:29:12.689Z,98788.20
2019-05-29T15:30:46.225Z,98780.93
2019-05-29T15:32:21.328Z,98788.38
2019-05-29T15:33:56.161Z,98795.84
2019-05-29T15:35:30.373Z,98793.45
2019-05-29T15:37:06.680Z,98791.70
2019-05-29T15:38:41.235Z,98787.77
2019-05-29T15:40:17.156Z,98801.48
2019-05-29T15:41:51.748Z,98806.69
2019-05-29T15:43:26.539Z,98806.99
2019-05-29T15:45:01.039Z,98805.70
2019-05-29T15:46:35.893Z,98809.12
2019-05-29T15:48:11.011Z,98811.57
2019-05-29T15:49:46.169Z,98815.19
2019-05-29T15:51:21.850Z,98814.39
2019-05-29T15:52:56.877Z,98812.73
2019-05-29T15:54:32.722Z,98804.06
2019-05-29T15:56:18.106Z,98812.27
2019-05-29T15:57:43.722Z,98810.38
2019-05-29T15:59:19.115Z,98806.61
2019-05-29T16:00:53.578Z,98816.89
2019-05-29T16:02:28.366Z,98815.75
2019-05-29T16:04:03.592Z,98812.92
2019-05-29T16:05:38.429Z,98819.71
2019-05-29T16:07:13.986Z,98821.48
2019-05-29T16:08:48.839Z,98822.98
2019-05-29T16:10:24.247Z,98822.98
2019-05-29T16:12:00.610Z,98824.72
2019-05-29T16:13:34.820Z,98816.88
2019-05-29T16:15:11.309Z,98822.45
2019-05-29T16:16:45.899Z,98824.12
2019-05-29T16:18:28.185Z,98823.69
2019-05-29T16:19:56.608Z,98826.08
2019-05-29T16:21:31.412Z,98829.12
2019-05-29T16:23:06.314Z,98830.16
2019-05-29T16:24:41.140Z,98835.67
2019-05-29T16:26:15.357Z,98832.58
2019-05-29T16:27:50.152Z,98837.46
2019-05-29T16:29:24.468Z,98842.04
2019-05-29T16:30:59.298Z,98836.52
2019-05-29T16:32:33.512Z,98841.23
2019-05-29T16:34:08.348Z,98838.47
2019-05-29T16:35:42.957Z,98841.50
2019-05-29T16:37:17.769Z,98841.77
2019-05-29T16:38:51.968Z,98844.68
2019-05-29T16:40:26.771Z,98849.81
2019-05-29T16:42:01.283Z,98860.45
2019-05-29T16:43:36.018Z,98859.27
2019-05-29T16:45:12.214Z,98862.89
2019-05-29T16:46:47.020Z,98862.95
2019-05-29T16:48:22.717Z,98867.39
2019-05-29T16:49:57.818Z,98864.09
2019-05-29T16:51:32.032Z,98866.26
2019-05-29T16:53:06.822Z,98868.94
2019-05-29T16:54:41.266Z,98863.91
2019-05-29T16:56:16.766Z,98857.72
2019-05-29T16:57:51.216Z,98851.89
2019-05-29T16:59:29.477Z,98845.05
2019-05-29T17:01:02.269Z,98851.53
2019-05-29T17:02:37.170Z,98852.30
2019-05-29T17:04:11.351Z,98848.24
2019-05-29T17:05:46.212Z,98850.47
2019-05-29T17:07:22.077Z,98851.36
2019-05-29T17:08:57.314Z,98854.91
2019-05-29T17:10:36.466Z,98856.81
2019-05-29T17:12:11.359Z,98855.42
2019-05-29T17:13:45.752Z,98854.05
2019-05-29T17:15:20.669Z,98848.11
2019-05-29T17:16:55.037Z,98854.55
2019-05-29T17:18:29.796Z,98849.28
2019-05-29T17:20:09.054Z,98858.58
2019-05-29T17:21:45.160Z,98863.41
2019-05-29T17:23:20.801Z,98870.73
2019-05-29T17:24:56.033Z,98869.91
2019-05-29T17:26:30.494Z,98878.72
2019-05-29T17:28:07.102Z,98880.48
2019-05-29T17:29:41.313Z,98883.92
2019-05-29T17:31:16.892Z,98880.92
2019-05-29T17:32:51.485Z,98887.58
2019-05-29T17:34:27.533Z,98885.70
2019-05-29T17:36:04.049Z,98896.34
2019-05-29T17:37:39.663Z,98897.52
2019-05-29T17:39:15.269Z,98898.45
2019-05-29T17:40:50.194Z,98901.61
2019-05-29T17:42:24.562Z,98901.92
2019-05-29T17:43:59.362Z,98898.54
2019-05-29T17:45:34.524Z,98894.88
2019-05-29T17:47:09.454Z,98896.66
2019-05-29T17:48:44.808Z,98891.45
2019-05-29T17:50:22.902Z,98890.02
2019-05-29T17:51:56.394Z,98888.92
2019-05-29T17:53:31.194Z,98889.23
2019-05-29T17:55:07.115Z,98895.58
2019-05-29T17:56:41.915Z,98896.77
2019-05-29T17:58:18.632Z,98898.70
2019-05-29T17:59:53.380Z,98904.48
2019-05-29T18:01:30.722Z,98899.92
2019-05-29T18:03:04.199Z,98903.16
2019-05-29T18:04:38.537Z,98913.09
2019-05-29T18:06:13.457Z,98919.20
2019-05-29T18:07:48.028Z,98915.19
2019-05-29T18:09:24.719Z,98917.84
2019-05-29T18:10:59.156Z,98910.63
2019-05-29T18:12:33.958Z,98916.11
2019-05-29T18:14:08.665Z,98913.22
2019-05-29T18:15:45.453Z,98910.81
2019-05-29T18:17:19.693Z,98909.38
2019-05-29T18:18:54.664Z,98909.88
2019-05-29T18:20:28.884Z,98915.11
2019-05-29T18:22:03.941Z,98918.16
2019-05-29T18:23:38.148Z,98916.27
2019-05-29T18:25:14.541Z,98922.73
2019-05-29T18:26:48.796Z,98930.86
2019-05-29T18:28:24.133Z,98937.55
2019-05-29T18:29:58.510Z,98940.48
2019-05-29T18:31:33.370Z,98941.53
2019-05-29T18:33:07.679Z,98943.70
2019-05-29T18:34:42.907Z,98942.69
2019-05-29T18:36:17.027Z,98934.86
2019-05-29T18:37:51.891Z,98931.94
2019-05-29T18:39:26.332Z,98918.93
2019-05-29T18:41:01.635Z,98923.08